Time;durP1;ratioP1;P1;durP2;ratioP2;P2;SDS_P1;SDS_P2;PMS_P1;PMS_P2;Temp;Humidity;BMP_temperature;BMP_pressure;BME280_temperature;BME280_humidity;BME280_pressure;Samples;Min_cycle;Max_cycle;Signal;HPM_P1;HPM_P2
2022/08/14 00:01:02;;;;;;;12.80;8.60;;;;;;;22.03;67.26;99219.96;109377;1274;22459;-61
2022/08/14 00:03:37;;;;;;;14.60;9.40;;;;;;;22.01;67.37;99217.01;109139;1276;139517;-61
2022/08/14 00:06:07;;;;;;;20.80;8.80;;;;;;;21.99;67.26;99216.45;109377;1274;22444;-60
2022/08/14 00:08:54;;;;;;;16.80;8.40;;;;;;;21.98;67.25;99212.66;109328;1275;22482;-61
2022/08/14 00:11:26;;;;;;;13.60;8.60;;;;;;;21.96;67.36;99215.44;109120;1276;140615;-60
2022/08/14 00:14:01;;;;;;;12.80;8.80;;;;;;;21.93;67.40;99217.40;109372;1274;22437;-61
2022/08/14 00:16:28;;;;;;;10.80;7.80;;;;;;;21.91;67.37;99218.77;109304;1274;140295;-61
2022/08/14 00:19:11;;;;;;;13.40;8.70;;;;;;;21.89;67.13;99222.02;109414;1274;22418;-60
2022/08/14 00:21:47;;;;;;;11.10;8.60;;;;;;;21.87;67.21;99220.50;109262;1274;139170;-61
2022/08/14 00:24:17;;;;;;;15.50;8.40;;;;;;;21.85;66.94;99219.41;109327;1274;23391;-61
2022/08/14 00:26:57;;;;;;;13.40;9.00;;;;;;;21.84;67.07;99217.79;109243;1276;22438;-61
2022/08/14 00:29:29;;;;;;;12.10;8.30;;;;;;;21.83;66.80;99214.82;109219;1274;139380;-61
2022/08/14 00:32:07;;;;;;;11.80;9.00;;;;;;;21.82;66.68;99214.79;109285;1276;23283;-61
2022/08/14 00:34:55;;;;;;;15.50;7.50;;;;;;;21.81;66.48;99216.10;109291;1274;138316;-61
2022/08/14 00:37:22;;;;;;;15.20;8.30;;;;;;;21.82;65.87;99214.36;109340;1275;23216;-61
2022/08/14 00:39:49;;;;;;;12.40;7.90;;;;;;;21.83;65.73;99214.42;109271;1274;139084;-61
2022/08/14 00:42:21;;;;;;;18.60;8.10;;;;;;;21.85;65.53;99213.53;109365;1274;22486;-61
2022/08/14 00:45:10;;;;;;;11.90;7.90;;;;;;;21.86;65.21;99214.30;109298;1276;23317;-61
2022/08/14 00:47:40;;;;;;;10.70;7.50;;;;;;;21.88;65.08;99211.23;109151;1276;140184;-61
2022/08/14 00:50:12;;;;;;;12.70;7.70;;;;;;;21.89;65.15;99210.53;109299;1276;23828;-62
2022/08/14 00:52:45;;;;;;;12.50;8.20;;;;;;;21.88;65.26;99207.02;109313;1274;138688;-62
2022/08/14 00:55:16;;;;;;;11.00;8.10;;;;;;;21.87;65.15;99209.11;109166;1276;23257;-61
2022/08/14 00:57:43;;;;;;;10.80;7.70;;;;;;;21.85;65.25;99209.74;109162;1276;139423;-60
2022/08/14 01:00:13;;;;;;;19.10;8.20;;;;;;;21.83;65.19;99209.11;109424;1274;22458;-60
2022/08/14 01:02:59;;;;;;;11.90;8.00;;;;;;;21.81;65.20;99204.91;109280;1276;22466;-60
2022/08/14 01:05:28;;;;;;;10.60;7.60;;;;;;;21.80;64.95;99205.02;109204;1276;139751;-60
2022/08/14 01:08:19;;;;;;;13.50;7.70;;;;;;;21.79;64.43;99209.59;109349;1276;22945;-60
2022/08/14 01:11:06;;;;;;;13.50;7.70;;;;;;;21.81;64.49;99202.44;109166;1276;139048;-60
2022/08/14 01:13:35;;;;;;;12.10;7.90;;;;;;;21.80;64.54;99201.95;109314;1274;22466;-60
2022/08/14 01:16:13;;;;;;;13.50;8.30;;;;;;;21.80;64.68;99202.02;109273;1274;139177;-60
2022/08/14 01:21:31;;;;;;;;;;;;;;;21.75;64.80;99211.90;109349;1276;22490;-60
2022/08/14 01:24:15;;;;;;;11.80;7.90;;;;;;;21.72;64.85;99211.95;109344;1275;22513;-63
2022/08/14 01:26:58;;;;;;;10.50;8.10;;;;;;;21.69;64.94;99213.34;106170;1277;25503;-62
2022/08/14 01:29:28;;;;;;;11.00;8.40;;;;;;;21.67;64.90;99210.55;109201;1274;140459;-59
2022/08/14 01:32:17;;;;;;;16.50;9.30;;;;;;;21.65;65.00;99210.66;109415;1274;22475;-60
2022/08/14 01:34:53;;;;;;;11.60;8.30;;;;;;;21.64;65.00;99215.13;109266;1274;139474;-59
2022/08/14 01:37:43;;;;;;;10.50;8.40;;;;;;;21.62;65.12;99211.74;109341;1274;22413;-59
2022/08/14 01:40:12;;;;;;;11.10;8.60;;;;;;;21.62;65.27;99205.78;109332;1274;138905;-59
2022/08/14 01:42:45;;;;;;;12.40;8.40;;;;;;;21.60;65.37;99208.27;109256;1276;22555;-59
2022/08/14 01:45:13;;;;;;;12.40;8.70;;;;;;;21.59;65.57;99206.45;109299;1275;23285;-62
2022/08/14 01:47:51;;;;;;;10.00;7.60;;;;;;;21.57;65.78;99209.79;109311;1274;138649;-62
2022/08/14 01:50:29;;;;;;;12.00;7.80;;;;;;;21.56;65.73;99211.08;109325;1274;22440;-63
2022/08/14 01:52:59;;;;;;;15.00;8.30;;;;;;;21.53;65.96;99208.64;109285;1274;138716;-62
2022/08/14 01:55:30;;;;;;;9.40;8.30;;;;;;;21.52;65.96;99210.89;109411;1274;23242;-63
2022/08/14 01:57:58;;;;;;;10.60;8.40;;;;;;;21.51;66.02;99215.66;109286;1274;138559;-63
2022/08/14 02:00:43;;;;;;;9.50;7.60;;;;;;;21.50;66.17;99215.38;109452;1274;22539;-63
2022/08/14 02:03:14;;;;;;;12.30;8.40;;;;;;;21.48;66.33;99213.30;109371;1274;22533;-63
2022/08/14 02:05:41;;;;;;;12.40;7.70;;;;;;;21.47;66.37;99212.61;109246;1275;138302;-62
2022/08/14 02:08:08;;;;;;;10.70;7.60;;;;;;;21.45;66.33;99213.34;109296;1276;22404;-62
2022/08/14 02:10:40;;;;;;;12.10;8.30;;;;;;;21.44;66.46;99206.38;109190;1275;140428;-61
2022/08/14 02:13:14;;;;;;;10.60;7.80;;;;;;;21.42;66.46;99207.59;109206;1276;22571;-61
2022/08/14 02:15:42;;;;;;;14.20;8.20;;;;;;;21.40;66.52;99210.50;109117;1276;138719;-61
2022/08/14 02:18:10;;;;;;;13.60;8.00;;;;;;;21.38;66.67;99207.88;109314;1276;22482;-61
2022/08/14 02:20:38;;;;;;;12.60;7.70;;;;;;;21.35;66.74;99202.95;109449;1274;23213;-61
2022/08/14 02:23:05;;;;;;;13.40;8.20;;;;;;;21.32;66.74;99201.70;109161;1276;138892;-61
2022/08/14 02:25:35;;;;;;;13.80;8.30;;;;;;;21.30;66.93;99203.61;109343;1276;22614;-60
2022/08/14 02:28:02;;;;;;;11.70;8.10;;;;;;;21.27;67.00;99209.36;109310;1274;138608;-60
2022/08/14 02:30:49;;;;;;;12.60;8.30;;;;;;;21.24;67.12;99207.55;109461;1274;22645;-60
2022/08/14 02:33:19;;;;;;;14.20;7.90;;;;;;;21.20;67.17;99212.02;109345;1275;22657;-60
2022/08/14 02:35:46;;;;;;;15.40;7.30;;;;;;;21.16;67.28;99210.19;109231;1274;138830;-60
2022/08/14 02:38:30;;;;;;;11.90;7.70;;;;;;;21.13;67.26;99211.48;109328;1275;23129;-60
2022/08/14 02:41:00;;;;;;;13.00;7.80;;;;;;;21.11;67.43;99211.61;109198;1276;138971;-60
2022/08/14 02:43:31;;;;;;;13.00;7.80;;;;;;;21.08;67.48;99209.83;109353;1275;22419;-60
2022/08/14 02:46:11;;;;;;;9.50;7.60;;;;;;;21.04;67.56;99211.60;109254;1274;139076;-60
2022/08/14 02:48:41;;;;;;;12.30;7.80;;;;;;;21.01;67.56;99209.42;109286;1276;23345;-60
2022/08/14 02:51:28;;;;;;;11.20;7.80;;;;;;;20.98;67.66;99212.37;109341;1275;23198;-60
2022/08/14 02:53:57;;;;;;;10.80;7.70;;;;;;;20.97;67.73;99208.98;109333;1275;22550;-59
2022/08/14 02:56:26;;;;;;;13.10;8.10;;;;;;;20.95;67.90;99213.17;108412;1274;1237857;-60
2022/08/14 03:00:21;;;;;;;12.60;7.60;;;;;;;20.92;68.12;99211.17;101881;1310;545269;-58
2022/08/14 03:02:49;;;;;;;10.50;8.00;;;;;;;20.86;68.15;99214.33;108485;1284;22508;-60
2022/08/14 03:05:29;;;;;;;8.90;7.90;;;;;;;20.82;68.21;99214.89;108044;1286;139176;-60
2022/08/14 03:08:06;;;;;;;12.10;8.40;;;;;;;20.79;68.22;99212.63;108083;1289;22496;-60
2022/08/14 03:10:33;;;;;;;12.60;8.20;;;;;;;20.77;68.37;99213.34;108041;1287;139113;-61
2022/08/14 03:13:03;;;;;;;11.10;8.10;;;;;;;20.74;68.44;99209.77;107345;1286;1147972;-61
2022/08/14 03:15:32;;;;;;;10.90;7.60;;;;;;;20.73;68.49;99209.77;108426;1286;23629;-61
2022/08/14 03:18:00;;;;;;;8.60;7.70;;;;;;;20.72;68.66;99208.20;108218;1284;139228;-61
2022/08/14 03:20:27;;;;;;;12.60;7.60;;;;;;;20.69;68.64;99204.95;108429;1285;23181;-61
2022/08/14 03:22:58;;;;;;;11.40;8.40;;;;;;;20.69;68.64;99210.07;108018;1286;138851;-61
2022/08/14 03:25:32;;;;;;;8.80;7.40;;;;;;;20.68;68.69;99204.89;108370;1286;22569;-61
2022/08/14 03:28:07;;;;;;;9.30;7.60;;;;;;;20.67;68.74;99202.95;108277;1286;138881;-62
2022/08/14 03:30:40;;;;;;;10.60;7.90;;;;;;;20.66;68.87;99207.67;108372;1285;22445;-61
2022/08/14 03:33:10;;;;;;;11.70;8.00;;;;;;;20.66;68.87;99210.98;108374;1285;24476;-61
2022/08/14 03:35:38;;;;;;;14.10;8.10;;;;;;;20.66;68.93;99212.16;108135;1287;139264;-61
2022/08/14 03:38:25;;;;;;;11.20;7.50;;;;;;;20.67;69.01;99213.52;108158;1287;22496;-61
2022/08/14 03:41:15;;;;;;;13.30;8.80;;;;;;;20.67;69.02;99212.13;108115;1286;138672;-61
2022/08/14 03:43:46;;;;;;;10.30;8.00;;;;;;;20.67;69.01;99210.80;108291;1286;22656;-61
2022/08/14 03:46:29;;;;;;;10.30;8.00;;;;;;;20.69;68.99;99209.90;108202;1286;140955;-62
2022/08/14 03:49:19;;;;;;;14.70;7.90;;;;;;;20.70;68.99;99209.58;108186;1287;22569;-62
2022/08/14 03:51:49;;;;;;;10.10;8.00;;;;;;;20.71;68.97;99213.23;107836;1286;139026;-63
2022/08/14 03:54:19;;;;;;;12.10;7.70;;;;;;;20.72;69.18;99216.85;108246;1286;22459;-63
2022/08/14 03:56:46;;;;;;;10.30;7.50;;;;;;;20.72;69.11;99215.17;108263;1286;22444;-63
2022/08/14 03:59:15;;;;;;;11.80;8.20;;;;;;;20.71;69.02;99217.91;108151;1286;138983;-63
2022/08/14 04:01:46;;;;;;;11.10;7.50;;;;;;;20.71;69.16;99217.63;108270;1284;22550;-60
2022/08/14 04:04:29;;;;;;;9.60;8.30;;;;;;;20.71;69.12;99215.99;108102;1287;138495;-61
2022/08/14 04:06:56;;;;;;;10.20;7.70;;;;;;;20.69;69.13;99207.14;108301;1286;22411;-60
2022/08/14 04:09:25;;;;;;;16.30;8.50;;;;;;;20.69;69.20;99208.25;108101;1287;22698;-61
2022/08/14 04:11:53;;;;;;;12.90;8.20;;;;;;;20.67;69.22;99198.73;108679;1281;138365;-61
2022/08/14 04:14:22;;;;;;;14.50;8.70;;;;;;;20.65;69.23;99198.97;109236;1276;22557;-61
2022/08/14 04:16:49;;;;;;;10.10;7.70;;;;;;;20.63;69.21;99199.77;109145;1277;138716;-61
2022/08/14 04:19:18;;;;;;;12.80;7.80;;;;;;;20.62;69.27;99193.02;109135;1277;22467;-61
2022/08/14 04:21:45;;;;;;;10.40;7.70;;;;;;;20.61;69.34;99193.22;109024;1277;138800;-62
2022/08/14 04:24:33;;;;;;;11.40;8.10;;;;;;;20.61;69.45;99195.20;109185;1276;22502;-63
2022/08/14 04:27:12;;;;;;;10.30;8.00;;;;;;;20.61;69.54;99197.16;109168;1277;22462;-63
2022/08/14 04:29:42;;;;;;;15.30;8.20;;;;;;;20.60;69.62;99194.84;109245;1277;139111;-63
2022/08/14 04:32:11;;;;;;;13.20;7.90;;;;;;;20.61;69.60;99192.73;109254;1276;23413;-62
2022/08/14 04:35:01;;;;;;;12.10;7.60;;;;;;;20.61;69.48;99194.98;109149;1276;139130;-63
2022/08/14 04:46:06;;;;;;;14.00;8.20;;;;;;;20.62;69.48;99190.35;109103;1276;138766;-62
2022/08/14 04:48:33;;;;;;;9.80;8.00;;;;;;;20.63;69.49;99191.01;109303;1276;22464;-62
2022/08/14 04:51:14;;;;;;;14.60;8.00;;;;;;;20.64;69.39;99193.15;109362;1275;22457;-62
2022/08/14 04:53:42;;;;;;;15.80;8.20;;;;;;;20.64;69.39;99193.86;109262;1277;138438;-62
2022/08/14 04:56:11;;;;;;;9.00;7.50;;;;;;;20.64;69.55;99198.16;109300;1277;22495;-62
2022/08/14 04:58:59;;;;;;;16.00;7.90;;;;;;;20.64;69.79;99195.36;109118;1276;137775;-63
2022/08/14 05:01:29;;;;;;;9.90;7.90;;;;;;;20.63;69.85;99201.67;109236;1276;22543;-62
2022/08/14 05:04:06;;;;;;;12.90;7.90;;;;;;;20.63;70.03;99199.94;109084;1277;139312;-63
2022/08/14 05:06:32;;;;;;;14.10;8.00;;;;;;;20.63;70.07;99206.58;109358;1276;23509;-62
2022/08/14 05:09:05;;;;;;;8.30;7.50;;;;;;;20.63;70.06;99208.71;109348;1276;22674;-62
2022/08/14 05:11:34;;;;;;;15.30;7.40;;;;;;;20.64;70.16;99207.96;109104;1277;139116;-62
2022/08/14 05:14:03;;;;;;;11.10;8.20;;;;;;;20.66;70.09;99207.08;109206;1277;22582;-62
2022/08/14 05:16:50;;;;;;;8.50;7.60;;;;;;;20.68;70.10;99201.86;109159;1275;138853;-62
2022/08/14 05:19:18;;;;;;;12.50;8.20;;;;;;;20.70;70.24;99202.35;109252;1277;22455;-62
2022/08/14 05:21:58;;;;;;;13.30;9.00;;;;;;;20.74;70.18;99203.00;109156;1276;138131;-62
2022/08/14 05:24:48;;;;;;;13.50;7.60;;;;;;;20.77;70.08;99203.92;109250;1276;22480;-62
2022/08/14 05:27:19;;;;;;;9.80;8.30;;;;;;;20.79;70.07;99204.32;109276;1276;22446;-62
2022/08/14 05:29:52;;;;;;;8.60;7.60;;;;;;;20.82;70.14;99202.64;109230;1275;137749;-62
2022/08/14 05:32:22;;;;;;;13.30;8.10;;;;;;;20.87;70.20;99202.34;109253;1276;22460;-62
2022/08/14 05:34:56;;;;;;;9.50;7.70;;;;;;;20.91;70.14;99199.17;109144;1277;137971;-62
2022/08/14 05:37:26;;;;;;;10.80;7.80;;;;;;;20.95;70.07;99201.63;109336;1276;22472;-61
2022/08/14 05:39:53;;;;;;;10.80;7.70;;;;;;;20.99;69.98;99205.76;109144;1276;139332;-60
2022/08/14 05:42:21;;;;;;;10.80;8.30;;;;;;;21.02;69.76;99205.73;109262;1277;22448;-60
2022/08/14 05:44:54;;;;;;;9.10;8.20;;;;;;;21.07;69.64;99203.94;109245;1277;22519;-61
2022/08/14 05:47:22;;;;;;;11.20;7.70;;;;;;;21.10;69.59;99203.36;109161;1276;138805;-61
2022/08/14 05:49:49;;;;;;;10.50;8.30;;;;;;;21.14;69.61;99204.52;109241;1276;22532;-61
2022/08/14 05:52:17;;;;;;;16.40;8.00;;;;;;;21.17;69.52;99206.34;109175;1276;138536;-62
2022/08/14 05:55:05;;;;;;;10.90;8.10;;;;;;;21.21;69.48;99202.30;109224;1275;23622;-62
2022/08/14 05:57:32;;;;;;;10.80;8.20;;;;;;;21.23;69.60;99208.07;109277;1277;23217;-60
2022/08/14 05:59:58;;;;;;;13.10;8.00;;;;;;;21.25;69.73;99203.40;109160;1276;139015;-61
2022/08/14 06:02:25;;;;;;;10.00;7.60;;;;;;;21.27;69.68;99198.34;109229;1276;22430;-60
2022/08/14 06:04:54;;;;;;;10.80;8.70;;;;;;;21.29;69.75;99200.19;109091;1276;139074;-61
2022/08/14 06:07:24;;;;;;;9.40;8.20;;;;;;;21.33;69.87;99199.87;109360;1276;22455;-61
2022/08/14 06:09:51;;;;;;;8.80;7.90;;;;;;;21.36;69.97;99199.25;109220;1276;138920;-61
2022/08/14 06:12:18;;;;;;;10.60;8.50;;;;;;;21.38;69.64;99199.02;109285;1277;22536;-60
2022/08/14 06:15:06;;;;;;;11.50;7.90;;;;;;;21.41;69.67;99195.39;109277;1276;22518;-61
2022/08/14 06:17:47;;;;;;;20.80;8.70;;;;;;;21.43;69.72;99193.20;109096;1276;138154;-61
2022/08/14 06:20:24;;;;;;;10.80;8.20;;;;;;;21.45;69.58;99193.19;109230;1276;23266;-61
2022/08/14 06:22:51;;;;;;;10.70;8.60;;;;;;;21.46;69.36;99195.08;109162;1276;138887;-61
2022/08/14 06:25:18;;;;;;;9.80;7.50;;;;;;;21.48;69.59;99190.23;109288;1276;22486;-60
2022/08/14 06:27:47;;;;;;;11.60;8.30;;;;;;;21.51;69.71;99189.94;109182;1276;138950;-61
2022/08/14 06:30:16;;;;;;;13.70;9.20;;;;;;;21.53;69.59;99191.84;109288;1277;22454;-60
2022/08/14 06:32:43;;;;;;;12.40;8.20;;;;;;;21.56;69.53;99191.07;109085;1277;22536;-60
2022/08/14 06:35:10;;;;;;;8.60;7.60;;;;;;;21.58;69.69;99191.23;109130;1276;140297;-60
2022/08/14 06:37:45;;;;;;;12.60;8.10;;;;;;;21.60;69.86;99194.58;109181;1276;22460;-62
2022/08/14 06:40:19;;;;;;;13.40;8.20;;;;;;;21.63;69.75;99192.85;109107;1277;139724;-62
2022/08/14 06:43:04;;;;;;;12.30;8.30;;;;;;;21.67;69.66;99190.69;109313;1276;23006;-61
2022/08/14 06:45:33;;;;;;;11.40;8.60;;;;;;;21.72;69.62;99197.27;109294;1276;22471;-62
2022/08/14 06:48:02;;;;;;;13.80;8.60;;;;;;;21.75;69.49;99195.11;109115;1276;22518;-62
2022/08/14 06:50:38;;;;;;;10.50;7.50;;;;;;;21.78;69.55;99194.27;109254;1276;22237;-62
2022/08/14 06:53:06;;;;;;;10.50;8.50;;;;;;;21.83;69.75;99193.52;109173;1276;139732;-62
2022/08/14 06:55:33;;;;;;;14.40;9.30;;;;;;;21.87;69.55;99196.80;109294;1277;22223;-60
2022/08/14 06:58:10;;;;;;;10.90;8.40;;;;;;;21.91;69.55;99193.71;109138;1276;139329;-61
2022/08/14 07:06:29;;;;;;;12.70;8.60;;;;;;;22.04;69.19;99198.58;109319;1277;22498;-61
2022/08/14 07:09:12;;;;;;;11.20;8.80;;;;;;;22.07;69.37;99199.78;109349;1276;22514;-61
2022/08/14 07:11:48;;;;;;;12.00;8.90;;;;;;;22.10;69.29;99201.30;109172;1276;137882;-61
2022/08/14 07:14:15;;;;;;;12.00;8.60;;;;;;;22.11;69.16;99198.19;109303;1276;23242;-61
2022/08/14 07:16:42;;;;;;;12.90;8.90;;;;;;;22.13;69.19;99198.83;109143;1277;139831;-61
2022/08/14 07:19:10;;;;;;;9.70;8.70;;;;;;;22.15;69.04;99195.09;109334;1275;23176;-61
2022/08/14 07:21:38;;;;;;;10.50;8.00;;;;;;;22.18;69.20;99193.05;109222;1276;139144;-61
2022/08/14 07:24:05;;;;;;;11.20;8.20;;;;;;;22.21;69.36;99198.33;109293;1275;23276;-61
2022/08/14 07:26:47;;;;;;;11.20;8.70;;;;;;;22.26;69.65;99197.21;109283;1277;22469;-61
2022/08/14 07:29:13;;;;;;;9.40;8.40;;;;;;;22.32;69.28;99199.09;109203;1276;140265;-61
2022/08/14 07:31:43;;;;;;;11.60;7.90;;;;;;;22.39;68.55;99201.15;109334;1277;22872;-61
2022/08/14 07:34:09;;;;;;;13.00;9.30;;;;;;;22.46;68.30;99201.80;109254;1276;139249;-61
2022/08/14 07:36:37;;;;;;;12.00;8.30;;;;;;;22.52;68.11;99197.73;109352;1275;22388;-61
2022/08/14 07:39:23;;;;;;;15.70;10.10;;;;;;;22.60;67.69;99197.03;109281;1277;22473;-60
2022/08/14 07:41:53;;;;;;;12.90;7.80;;;;;;;22.66;67.46;99195.07;109198;1276;139294;-61
2022/08/14 07:44:20;;;;;;;25.80;10.50;;;;;;;22.70;67.27;99193.72;109264;1276;22466;-61
2022/08/14 07:47:02;;;;;;;14.00;9.70;;;;;;;22.77;67.11;99193.10;109147;1276;138775;-61
2022/08/14 07:49:30;;;;;;;12.60;8.70;;;;;;;22.84;67.31;99193.80;109264;1276;22395;-61
2022/08/14 07:51:58;;;;;;;14.70;9.00;;;;;;;22.91;67.53;99189.44;109254;1276;139461;-61
2022/08/14 07:54:25;;;;;;;13.40;8.50;;;;;;;23.00;67.37;99190.60;109277;1276;22257;-61
2022/08/14 07:57:00;;;;;;;12.20;8.10;;;;;;;23.13;67.77;99197.75;109302;1277;22253;-61
2022/08/14 07:59:37;;;;;;;9.90;8.50;;;;;;;23.32;67.85;99194.70;109188;1276;139174;-61
2022/08/14 08:02:08;;;;;;;11.20;8.80;;;;;;;23.53;67.16;99193.36;109259;1276;23095;-62
2022/08/14 08:04:45;;;;;;;12.90;8.40;;;;;;;23.70;66.39;99192.20;109161;1277;139260;-62
2022/08/14 08:07:15;;;;;;;13.60;8.80;;;;;;;23.81;65.67;99193.00;109401;1276;23243;-62
2022/08/14 08:09:44;;;;;;;11.10;8.10;;;;;;;23.89;64.77;99186.33;109259;1275;138908;-63
2022/08/14 08:12:11;;;;;;;10.10;8.00;;;;;;;23.99;63.93;99183.49;109265;1276;23481;-62
2022/08/14 08:14:42;;;;;;;13.30;8.30;;;;;;;24.07;63.83;99180.38;109153;1277;22308;-62
2022/08/14 08:17:22;;;;;;;11.10;9.40;;;;;;;24.17;64.07;99182.16;109254;1276;138287;-62
2022/08/14 08:19:49;;;;;;;16.40;8.70;;;;;;;24.24;63.48;99186.69;109321;1276;22413;-62
2022/08/14 08:22:18;;;;;;;13.80;8.10;;;;;;;24.34;63.47;99181.60;109252;1276;138664;-61
2022/08/14 08:24:45;;;;;;;10.60;8.70;;;;;;;24.44;63.19;99188.54;109355;1276;22836;-61
2022/08/14 08:27:16;;;;;;;13.40;8.50;;;;;;;24.53;63.70;99186.55;109325;1277;23100;-62
2022/08/14 08:30:08;;;;;;;13.10;8.60;;;;;;;24.64;62.97;99186.21;109392;1276;22532;-61
2022/08/14 08:32:41;;;;;;;10.50;8.90;;;;;;;24.73;62.36;99186.03;109400;1275;22429;-62
2022/08/14 08:35:19;;;;;;;11.70;8.40;;;;;;;24.79;61.43;99180.86;109155;1277;138072;-62
2022/08/14 08:37:47;;;;;;;16.40;10.30;;;;;;;24.82;61.34;99178.99;109328;1275;23608;-62
2022/08/14 08:40:34;;;;;;;9.10;8.20;;;;;;;24.82;61.36;99179.71;109137;1277;138188;-62
2022/08/14 08:43:19;;;;;;;12.30;9.30;;;;;;;24.85;61.55;99177.64;109338;1276;22522;-63
2022/08/14 08:46:02;;;;;;;14.00;8.10;;;;;;;24.87;59.89;99180.09;109149;1276;138294;-62
2022/08/14 08:48:46;;;;;;;8.60;7.80;;;;;;;24.91;59.05;99168.80;109256;1277;22541;-62
2022/08/14 08:51:30;;;;;;;9.20;8.30;;;;;;;24.97;59.03;99164.52;109204;1277;22542;-62
2022/08/14 08:54:13;;;;;;;8.40;7.60;;;;;;;25.04;60.03;99162.11;109190;1276;138285;-62
2022/08/14 08:56:51;;;;;;;11.90;8.50;;;;;;;25.11;60.52;99161.95;109305;1276;22256;-62
2022/08/14 08:59:24;;;;;;;9.00;7.90;;;;;;;25.20;60.33;99156.12;109255;1276;138886;-62
2022/08/14 09:01:59;;;;;;;11.00;7.80;;;;;;;25.32;59.61;99159.17;109248;1277;22461;-62
2022/08/14 09:04:27;;;;;;;9.90;8.60;;;;;;;25.42;59.17;99158.83;109078;1277;138044;-62
2022/08/14 09:06:54;;;;;;;12.00;8.20;;;;;;;25.50;59.06;99158.20;109263;1276;22473;-61
2022/08/14 09:09:55;;;;;;;9.60;8.50;;;;;;;25.58;58.95;99156.62;109368;1276;22411;-62
2022/08/14 09:12:30;;;;;;;11.10;8.20;;;;;;;25.64;58.49;99155.27;109301;1276;22676;-61
2022/08/14 09:15:03;;;;;;;8.70;7.80;;;;;;;25.66;57.89;99151.80;109293;1277;22551;-62
2022/08/14 09:17:39;;;;;;;9.50;7.80;;;;;;;25.68;58.10;99150.81;109243;1276;138889;-62
2022/08/14 09:20:07;;;;;;;13.30;7.80;;;;;;;25.75;58.39;99149.17;109117;1277;23246;-62
2022/08/14 09:22:40;;;;;;;16.80;8.20;;;;;;;25.82;58.28;99148.28;109227;1276;138207;-62
2022/08/14 09:25:14;;;;;;;8.80;8.00;;;;;;;25.86;58.49;99144.69;109359;1276;22293;-63
2022/08/14 09:27:41;;;;;;;8.20;7.50;;;;;;;25.89;58.46;99138.86;109178;1276;138153;-64
2022/08/14 09:30:09;;;;;;;10.70;7.40;;;;;;;25.97;58.30;99139.00;109278;1277;22432;-63
2022/08/14 09:33:01;;;;;;;12.60;8.10;;;;;;;26.04;58.44;99138.73;109185;1277;22560;-63
2022/08/14 09:35:50;;;;;;;8.20;7.30;;;;;;;26.10;58.29;99140.62;109114;1277;138396;-62
2022/08/14 09:38:34;;;;;;;11.50;7.80;;;;;;;26.15;57.89;99138.14;109290;1276;22451;-62
2022/08/14 09:41:41;;;;;;;8.90;6.70;;;;;;;26.19;57.69;99139.50;109156;1277;139015;-61
2022/08/14 09:44:39;;;;;;;8.00;7.00;;;;;;;26.27;57.00;99140.36;109306;1275;23215;-62
2022/08/14 09:47:11;;;;;;;8.50;7.70;;;;;;;26.31;56.45;99139.19;109176;1277;139976;-62
2022/08/14 09:49:43;;;;;;;9.50;7.30;;;;;;;26.34;57.01;99143.64;109285;1276;22433;-62
2022/08/14 09:52:19;;;;;;;9.40;7.50;;;;;;;26.38;57.07;99143.95;109198;1277;138434;-62
2022/08/14 09:54:59;;;;;;;8.70;7.10;;;;;;;26.44;57.03;99149.30;109314;1276;22369;-61
2022/08/14 09:57:29;;;;;;;9.80;7.30;;;;;;;26.47;56.14;99149.29;109289;1275;22470;-61
2022/08/14 09:59:57;;;;;;;11.00;7.50;;;;;;;26.48;56.03;99146.02;109195;1276;138323;-61
2022/08/14 10:02:28;;;;;;;10.60;8.00;;;;;;;26.48;55.45;99153.69;109303;1277;22476;-61
2022/08/14 10:05:08;;;;;;;9.70;7.10;;;;;;;26.50;55.72;99154.13;109207;1277;137714;-61
2022/08/14 10:07:50;;;;;;;10.40;7.30;;;;;;;26.51;55.75;99150.56;104970;1277;22580;-59
2022/08/14 10:10:34;;;;;;;13.00;7.30;;;;;;;26.53;55.60;99147.95;104870;1277;137935;-62
2022/08/14 10:13:05;;;;;;;8.30;6.60;;;;;;;26.52;55.00;99147.23;109279;1276;22605;-60
2022/08/14 10:15:36;;;;;;;11.30;7.90;;;;;;;26.47;55.39;99151.36;109296;1277;23437;-60
2022/08/14 10:18:11;;;;;;;10.80;6.80;;;;;;;26.43;55.67;99154.88;109369;1274;22587;-60
2022/08/14 10:21:04;;;;;;;19.10;7.10;;;;;;;26.39;54.74;99160.73;109348;1276;23227;-60
2022/08/14 10:23:48;;;;;;;14.30;6.70;;;;;;;26.32;54.11;99153.00;109085;1277;137644;-59
2022/08/14 10:26:17;;;;;;;9.20;7.10;;;;;;;26.22;54.30;99151.91;109305;1277;22469;-60
2022/08/14 10:29:03;;;;;;;14.30;7.00;;;;;;;26.13;54.79;99154.08;109186;1276;138357;-60
2022/08/14 10:31:55;;;;;;;7.40;6.30;;;;;;;26.07;55.54;99150.06;109183;1277;23561;-60
2022/08/14 10:34:23;;;;;;;10.00;6.50;;;;;;;26.04;55.61;99147.69;109118;1277;138422;-61
2022/08/14 10:37:10;;;;;;;10.00;7.40;;;;;;;26.08;55.84;99156.77;109308;1276;22479;-60
2022/08/14 10:39:40;;;;;;;9.60;6.60;;;;;;;26.16;55.57;99155.95;109153;1276;138703;-60
2022/08/14 10:42:35;;;;;;;7.50;5.90;;;;;;;26.24;55.92;99155.33;109296;1275;22543;-61
2022/08/14 10:45:19;;;;;;;8.50;6.50;;;;;;;26.31;55.27;99154.02;109269;1277;22433;-60
2022/08/14 10:47:48;;;;;;;10.70;6.20;;;;;;;26.36;55.28;99157.17;109237;1276;137292;-61
2022/08/14 10:50:37;;;;;;;8.50;6.30;;;;;;;26.41;54.63;99155.09;109286;1277;22453;-61
2022/08/14 10:53:04;;;;;;;8.10;6.50;;;;;;;26.47;54.71;99158.23;109262;1274;138607;-61
2022/08/14 10:55:38;;;;;;;15.40;6.60;;;;;;;26.52;55.12;99157.05;109360;1277;22450;-61
2022/08/14 10:58:12;;;;;;;7.70;6.90;;;;;;;26.59;54.62;99153.79;109223;1274;138010;-61
2022/08/14 11:00:41;;;;;;;13.00;7.00;;;;;;;26.64;55.03;99155.48;109304;1276;22525;-61
2022/08/14 11:03:13;;;;;;;7.40;6.70;;;;;;;26.68;54.76;99154.27;109283;1276;22340;-62
2022/08/14 11:05:52;;;;;;;13.00;6.50;;;;;;;26.69;54.74;99153.34;109134;1277;137769;-61
2022/08/14 11:08:31;;;;;;;10.40;6.30;;;;;;;26.69;54.35;99155.34;109318;1274;22487;-61
2022/08/14 11:11:00;;;;;;;7.00;6.30;;;;;;;26.68;53.65;99148.30;109127;1276;139371;-62
2022/08/14 11:13:29;;;;;;;10.20;6.00;;;;;;;26.67;53.85;99148.91;109261;1277;22254;-62
2022/08/14 11:15:59;;;;;;;7.20;6.00;;;;;;;26.63;53.51;99149.64;109106;1274;139719;-61
2022/08/14 11:18:27;;;;;;;10.10;6.70;;;;;;;26.58;53.11;99150.34;109246;1276;22498;-61
2022/08/14 11:21:01;;;;;;;14.60;7.30;;;;;;;26.52;53.19;99144.58;109319;1274;23550;-62
2022/08/14 11:23:30;;;;;;;10.30;6.60;;;;;;;26.48;53.51;99146.42;109252;1277;137939;-62
2022/08/14 11:26:07;;;;;;;8.50;6.60;;;;;;;26.45;53.73;99149.24;109384;1276;22425;-62
2022/08/14 11:28:38;;;;;;;9.20;7.20;;;;;;;26.43;54.08;99141.30;109204;1277;138204;-63
2022/08/14 11:31:17;;;;;;;16.30;7.50;;;;;;;26.47;54.73;99142.16;109390;1276;22415;-62
2022/08/14 11:33:47;;;;;;;9.60;7.70;;;;;;;26.53;54.77;99137.66;109330;1274;138725;-62
2022/08/14 11:36:14;;;;;;;12.90;10.60;;;;;;;26.62;54.32;99140.76;109355;1274;22576;-62
2022/08/14 11:38:44;;;;;;;11.50;10.40;;;;;;;26.67;54.05;99142.92;109233;1276;22495;-62
2022/08/14 11:41:13;;;;;;;10.80;6.80;;;;;;;26.71;54.36;99143.29;109234;1274;138687;-62
2022/08/14 11:43:44;;;;;;;9.80;7.00;;;;;;;26.76;53.86;99142.73;109243;1276;22298;-62
2022/08/14 11:46:22;;;;;;;9.40;7.00;;;;;;;26.80;53.68;99145.05;109308;1274;137812;-62
2022/08/14 11:49:03;;;;;;;7.30;6.40;;;;;;;26.86;53.71;99141.36;109330;1276;22458;-61
2022/08/14 11:51:32;;;;;;;9.60;7.80;;;;;;;26.91;53.93;99145.45;109358;1277;23245;-61
2022/08/14 11:54:18;;;;;;;;;;;;;;;26.95;53.85;99146.50;109399;1275;23268;-61
2022/08/14 11:56:59;;;;;;;7.70;6.80;;;;;;;26.99;53.58;99151.19;109286;1276;22458;-61
2022/08/14 11:59:28;;;;;;;14.30;7.10;;;;;;;27.01;53.40;99144.67;108936;1277;138457;-61
2022/08/14 12:02:13;;;;;;;13.70;6.60;;;;;;;27.04;54.07;99151.66;109292;1276;22442;-61
2022/08/14 12:05:00;;;;;;;12.00;7.60;;;;;;;27.08;53.84;99148.55;109142;1276;138488;-61
2022/08/14 12:07:30;;;;;;;15.00;7.40;;;;;;;27.11;54.42;99150.98;109239;1277;22495;-62